createdAt,value
2023-05-06T00:00:30.002Z,101215.41
2023-05-06T00:03:00.290Z,101220.75
2023-05-06T00:05:28.313Z,101218.78
2023-05-06T00:07:56.245Z,101226.56
2023-05-06T00:10:24.146Z,101222.03
2023-05-06T00:12:52.023Z,101217.56
2023-05-06T00:15:19.924Z,101221.09
2023-05-06T00:17:47.897Z,101214.88
2023-05-06T00:20:17.198Z,101219.31
2023-05-06T00:22:45.126Z,101224.47
2023-05-06T00:25:13.082Z,101218.22
2023-05-06T00:27:40.896Z,101211.16
2023-05-06T00:30:10.294Z,101215.56
2023-05-06T00:32:38.192Z,101203.22
2023-05-06T00:35:07.169Z,101207.72
2023-05-06T00:37:36.588Z,101204.16
2023-05-06T00:40:05.634Z,101197.94
2023-05-06T00:42:33.976Z,101186.44
2023-05-06T00:45:01.837Z,101185.75
2023-05-06T00:47:29.888Z,101179.03
2023-05-06T00:49:57.788Z,101184.63
2023-05-06T00:52:26.204Z,101181.53
2023-05-06T00:54:55.485Z,101179.44
2023-05-06T00:57:23.509Z,101177.97
2023-05-06T00:59:51.734Z,101174.69
2023-05-06T01:02:19.705Z,101169.59
2023-05-06T01:04:47.612Z,101168.03
2023-05-06T01:07:21.440Z,101169.84
2023-05-06T01:09:52.313Z,101169.06
2023-05-06T01:12:24.389Z,101160.34
2023-05-06T01:14:57.095Z,101168.91
2023-05-06T01:17:26.011Z,101163.44
2023-05-06T01:19:54.303Z,101159.06
2023-05-06T01:22:22.160Z,101158.25
2023-05-06T01:24:51.431Z,101157.31
2023-05-06T01:27:19.312Z,101151.28
2023-05-06T01:29:48.005Z,101150.47
2023-05-06T01:32:27.365Z,101155.06
2023-05-06T01:34:58.035Z,101139.59
2023-05-06T01:37:29.225Z,101162.75
2023-05-06T01:39:59.877Z,101140.56
2023-05-06T01:42:28.100Z,101137.94
2023-05-06T01:44:56.488Z,101131.19
2023-05-06T01:47:24.584Z,101132.94
2023-05-06T01:49:52.542Z,101132.06
2023-05-06T01:52:22.143Z,101138.44
2023-05-06T01:54:50.014Z,101133.28
2023-05-06T01:57:19.210Z,101130.03
2023-05-06T01:59:47.073Z,101132.78
2023-05-06T02:02:15.093Z,101126.75
2023-05-06T02:04:42.967Z,101125.00
2023-05-06T02:07:10.823Z,101131.06
2023-05-06T02:09:38.762Z,101127.28
2023-05-06T02:12:06.845Z,101125.25
2023-05-06T02:14:36.123Z,101127.75
2023-05-06T02:17:07.088Z,101125.78
2023-05-06T02:19:35.708Z,101127.44
2023-05-06T02:22:03.779Z,101125.53
2023-05-06T02:24:31.621Z,101120.75
2023-05-06T02:26:59.536Z,101120.69
2023-05-06T02:29:27.431Z,101117.78
2023-05-06T02:31:57.071Z,101115.00
2023-05-06T02:34:25.024Z,101117.53
2023-05-06T02:36:52.927Z,101121.66
2023-05-06T02:39:20.764Z,101122.44
2023-05-06T02:41:48.621Z,101117.00
2023-05-06T02:44:16.500Z,101117.00
2023-05-06T02:46:45.637Z,101103.69
2023-05-06T02:49:14.929Z,101103.88
2023-05-06T02:51:42.902Z,101103.34
2023-05-06T02:54:11.115Z,101099.81
2023-05-06T02:56:38.995Z,101102.50
2023-05-06T02:59:06.937Z,101095.41
2023-05-06T03:01:34.920Z,101099.72
2023-05-06T03:04:03.690Z,101095.06
2023-05-06T03:06:33.081Z,101094.81
2023-05-06T03:09:01.016Z,101098.28
2023-05-06T03:11:31.452Z,101089.78
2023-05-06T03:13:59.437Z,101098.59
2023-05-06T03:16:27.622Z,101097.66
2023-05-06T03:18:55.529Z,101089.63
2023-05-06T03:21:23.559Z,101088.50
2023-05-06T03:23:52.854Z,101083.03
2023-05-06T03:26:21.320Z,101074.06
2023-05-06T03:28:49.211Z,101074.94
2023-05-06T03:31:17.138Z,101073.03
2023-05-06T03:33:45.072Z,101065.88
2023-05-06T03:36:14.157Z,101069.38
2023-05-06T03:38:42.333Z,101064.91
2023-05-06T03:41:11.557Z,101062.22
2023-05-06T03:43:39.687Z,101054.09
2023-05-06T03:46:08.114Z,101054.97
2023-05-06T03:48:36.114Z,101052.22
2023-05-06T03:51:04.238Z,101050.47
2023-05-06T03:53:32.132Z,101045.03
2023-05-06T03:56:01.804Z,101041.41
2023-05-06T03:58:31.119Z,101045.91
2023-05-06T04:01:00.953Z,101037.69
2023-05-06T04:03:29.014Z,101044.97
2023-05-06T04:05:57.076Z,101037.00
2023-05-06T04:08:24.970Z,101027.25
2023-05-06T04:10:53.014Z,101022.16
2023-05-06T04:13:21.080Z,101025.59
2023-05-06T04:15:51.188Z,101026.47
2023-05-06T04:18:20.045Z,101026.38
2023-05-06T04:20:49.047Z,101027.25
2023-05-06T04:23:17.293Z,101024.47
2023-05-06T04:25:48.758Z,101027.16
2023-05-06T04:28:17.784Z,101022.66
2023-05-06T04:30:45.811Z,101018.19
2023-05-06T04:33:15.183Z,101017.09
2023-05-06T04:35:51.227Z,101014.38
2023-05-06T04:38:19.373Z,101020.59
2023-05-06T04:40:47.233Z,101013.38
2023-05-06T04:43:15.268Z,100998.28
2023-05-06T04:45:49.531Z,101007.19
2023-05-06T04:48:20.061Z,101009.94
2023-05-06T04:50:48.004Z,101008.13
2023-05-06T04:53:16.181Z,101002.69
2023-05-06T04:55:44.179Z,101004.41
2023-05-06T04:58:12.102Z,101006.13
2023-05-06T05:00:40.272Z,101001.63
2023-05-06T05:03:08.306Z,100982.75
2023-05-06T05:05:37.684Z,101005.09
2023-05-06T05:08:05.877Z,101001.56
2023-05-06T05:10:33.796Z,100993.59
2023-05-06T05:13:01.723Z,101001.56
2023-05-06T05:15:29.588Z,101003.38
2023-05-06T05:17:57.552Z,100990.94
2023-05-06T05:20:25.525Z,100993.53
2023-05-06T05:22:54.995Z,100992.72
2023-05-06T05:25:22.881Z,100984.03
2023-05-06T05:27:50.791Z,100984.03
2023-05-06T05:30:18.829Z,100978.84
2023-05-06T05:32:46.742Z,100976.28
2023-05-06T05:35:14.800Z,100971.00
2023-05-06T05:37:42.632Z,100968.34
2023-05-06T05:40:12.723Z,100968.34
2023-05-06T05:42:40.920Z,100967.38
2023-05-06T05:45:09.986Z,100962.00
2023-05-06T05:47:37.971Z,100972.66
2023-05-06T05:50:06.606Z,100964.63
2023-05-06T05:52:35.001Z,100964.53
2023-05-06T05:55:02.872Z,100965.38
2023-05-06T05:57:32.428Z,100960.03
2023-05-06T06:00:00.434Z,100959.25
2023-05-06T06:02:28.372Z,100963.84
2023-05-06T06:04:56.370Z,100966.53
2023-05-06T06:07:24.360Z,100959.59
2023-05-06T06:09:52.224Z,100962.28
2023-05-06T06:12:20.109Z,100955.22
2023-05-06T06:14:49.379Z,100952.59
2023-05-06T06:17:17.455Z,100948.13
2023-05-06T06:19:46.408Z,100953.31
2023-05-06T06:22:14.274Z,100948.91
2023-05-06T06:24:42.222Z,100950.47
2023-05-06T06:27:10.114Z,100956.47
2023-05-06T06:29:37.982Z,100945.59
2023-05-06T06:32:07.822Z,100948.19
2023-05-06T06:34:35.784Z,100948.00
2023-05-06T06:37:03.685Z,100948.78
2023-05-06T06:39:31.681Z,100937.09
2023-05-06T06:41:59.587Z,100946.75
2023-05-06T06:44:27.500Z,100946.47
2023-05-06T06:46:55.419Z,100956.03
2023-05-06T06:49:24.684Z,100947.84
2023-05-06T06:51:52.620Z,100937.00
2023-05-06T06:54:20.476Z,100946.50
2023-05-06T06:56:48.505Z,100948.84
2023-05-06T06:59:16.415Z,100931.59
2023-05-06T07:01:44.430Z,100941.19
2023-05-06T07:04:12.401Z,100939.94
2023-05-06T07:06:41.709Z,100938.69
2023-05-06T07:09:09.709Z,100940.31
2023-05-06T07:11:37.561Z,100930.94
2023-05-06T07:14:05.423Z,100920.59
2023-05-06T07:16:33.492Z,100932.00
2023-05-06T07:19:01.576Z,100929.22
2023-05-06T07:21:32.274Z,100926.53
2023-05-06T07:24:01.596Z,100926.53
2023-05-06T07:26:29.484Z,100926.41
2023-05-06T07:28:57.344Z,100930.44
2023-05-06T07:31:25.350Z,100931.13
2023-05-06T07:33:53.246Z,100923.56
2023-05-06T07:36:21.116Z,100929.69
2023-05-06T07:38:49.020Z,100924.09
2023-05-06T07:41:18.229Z,100927.44
2023-05-06T07:43:46.376Z,100921.91
2023-05-06T07:46:14.430Z,100922.56
2023-05-06T07:48:42.334Z,100925.88
2023-05-06T07:51:10.210Z,100920.97
2023-05-06T07:53:40.162Z,100917.94
2023-05-06T07:56:08.190Z,100923.84
2023-05-06T07:58:37.624Z,100922.59
2023-05-06T08:01:06.215Z,100931.09
2023-05-06T08:03:35.035Z,100924.78
2023-05-06T08:06:03.250Z,100918.84
2023-05-06T08:08:31.218Z,100924.16
2023-05-06T08:10:59.345Z,100930.38
2023-05-06T08:13:28.159Z,100920.31
2023-05-06T08:15:57.487Z,100926.66
2023-05-06T08:18:25.486Z,100932.47
2023-05-06T08:20:53.374Z,100926.91
2023-05-06T08:23:21.489Z,100922.28
2023-05-06T08:25:49.410Z,100926.47
2023-05-06T08:28:17.329Z,100925.22
2023-05-06T08:30:47.845Z,100929.41
2023-05-06T08:33:17.141Z,100930.91
2023-05-06T08:35:45.559Z,100924.38
2023-05-06T08:38:13.547Z,100928.47
2023-05-06T08:40:43.581Z,100927.28
2023-05-06T08:43:13.820Z,100915.38
2023-05-06T08:45:42.130Z,100923.66
2023-05-06T08:48:10.580Z,100915.94
2023-05-06T08:50:42.612Z,100924.44
2023-05-06T08:53:13.829Z,100921.00
2023-05-06T08:55:42.167Z,100933.59
2023-05-06T08:58:10.302Z,100921.84
2023-05-06T09:00:38.373Z,100920.97
2023-05-06T09:03:06.557Z,100920.94
2023-05-06T09:05:34.680Z,100912.31
2023-05-06T09:08:04.155Z,100917.72
2023-05-06T09:10:39.743Z,100916.03
2023-05-06T09:13:08.001Z,100918.81
2023-05-06T09:15:41.281Z,100907.88
2023-05-06T09:18:09.544Z,100915.00
2023-05-06T09:20:37.547Z,100912.72
2023-05-06T09:23:08.479Z,100911.28
2023-05-06T09:25:37.312Z,100915.88
2023-05-06T09:28:05.488Z,100904.78
2023-05-06T09:30:33.444Z,100909.09
2023-05-06T09:33:04.886Z,100913.69
2023-05-06T09:35:38.003Z,100910.16
2023-05-06T09:38:07.577Z,100911.97
2023-05-06T09:40:35.961Z,100916.78
2023-05-06T09:43:04.102Z,100911.25
2023-05-06T09:45:32.856Z,100912.22
2023-05-06T09:48:01.788Z,100911.03
2023-05-06T09:50:29.898Z,100920.31
2023-05-06T09:52:57.920Z,100912.84
2023-05-06T09:55:27.592Z,100907.06
2023-05-06T09:57:55.645Z,100901.31
2023-05-06T10:00:28.023Z,100916.25
2023-05-06T10:02:56.402Z,100915.75
2023-05-06T10:05:24.430Z,100906.00
2023-05-06T10:07:52.396Z,100917.63
2023-05-06T10:10:20.664Z,100915.06
2023-05-06T10:12:50.059Z,100916.94
2023-05-06T10:15:18.340Z,100911.66
2023-05-06T10:17:48.175Z,100911.41
2023-05-06T10:20:16.421Z,100908.56
2023-05-06T10:22:53.686Z,100905.59
2023-05-06T10:25:25.637Z,100908.50
2023-05-06T10:27:55.240Z,100911.06
2023-05-06T10:30:23.780Z,100902.75
2023-05-06T10:32:51.781Z,100894.19
2023-05-06T10:35:23.792Z,100902.31
2023-05-06T10:37:51.892Z,100909.19
2023-05-06T10:40:20.598Z,100911.50
2023-05-06T10:42:48.624Z,100917.25
2023-05-06T10:45:17.847Z,100919.56
2023-05-06T10:48:10.744Z,100922.53
2023-05-06T10:50:38.986Z,100930.97
2023-05-06T10:53:06.832Z,100923.63
2023-05-06T10:55:35.281Z,100919.22
2023-05-06T10:58:04.420Z,100928.31
2023-05-06T11:00:34.444Z,100923.19
2023-05-06T11:03:03.174Z,100931.53
2023-05-06T11:05:31.703Z,100925.97
2023-05-06T11:08:10.534Z,100922.38
2023-05-06T11:10:38.516Z,100923.53
2023-05-06T11:13:26.321Z,100936.72
2023-05-06T11:15:56.020Z,100943.50
2023-05-06T11:18:45.662Z,100944.13
2023-05-06T11:21:41.679Z,100942.41
2023-05-06T11:24:13.119Z,100958.84
2023-05-06T11:26:44.346Z,100955.59
2023-05-06T11:29:12.333Z,100950.31
2023-05-06T11:31:42.957Z,100954.50
2023-05-06T11:34:12.867Z,100951.38
2023-05-06T11:36:47.779Z,100957.09
2023-05-06T11:39:15.794Z,100960.91
2023-05-06T11:41:43.624Z,100964.91
2023-05-06T11:44:12.684Z,100964.59
2023-05-06T11:46:41.955Z,100972.88
2023-05-06T11:49:14.567Z,100966.94
2023-05-06T11:51:42.664Z,100961.06
2023-05-06T11:54:11.040Z,100967.09
2023-05-06T11:56:46.474Z,100974.66
2023-05-06T11:59:14.411Z,100966.44
2023-05-06T12:01:44.691Z,100972.91
2023-05-06T12:04:13.264Z,100967.13
2023-05-06T12:06:41.617Z,100972.28
2023-05-06T12:09:12.118Z,100980.91
2023-05-06T12:11:40.670Z,100977.94
2023-05-06T12:14:10.158Z,100969.59
2023-05-06T12:16:38.126Z,100975.06
2023-05-06T12:19:07.571Z,100983.19
2023-05-06T12:21:38.848Z,100979.44
2023-05-06T12:24:07.593Z,100977.19
2023-05-06T12:26:46.612Z,100984.03
2023-05-06T12:29:17.195Z,100988.25
2023-05-06T12:31:47.224Z,100985.53
2023-05-06T12:34:18.479Z,100984.88
2023-05-06T12:36:47.959Z,100992.41
2023-05-06T12:39:17.689Z,100990.44
2023-05-06T12:41:46.365Z,100999.81
2023-05-06T12:44:34.080Z,101004.13
2023-05-06T12:47:03.348Z,101011.34
2023-05-06T12:52:25.180Z,101018.09
2023-05-06T12:54:53.389Z,101017.69
2023-05-06T12:57:21.492Z,101021.09
2023-05-06T12:59:49.960Z,101026.38
2023-05-06T13:02:18.130Z,101024.53
2023-05-06T13:04:47.227Z,101025.97
2023-05-06T13:07:15.135Z,101033.69
2023-05-06T13:09:45.056Z,101032.97
2023-05-06T13:12:13.411Z,101036.81
2023-05-06T13:14:41.673Z,101041.75
2023-05-06T13:17:09.971Z,101044.63
2023-05-06T13:19:38.191Z,101052.91
2023-05-06T13:22:08.929Z,101042.66
2023-05-06T13:24:37.421Z,101050.25
2023-05-06T13:27:07.399Z,101053.63
2023-05-06T13:29:35.291Z,101051.25
2023-05-06T13:32:05.744Z,101046.47
2023-05-06T13:34:35.142Z,101050.75
2023-05-06T13:37:03.188Z,101060.31
2023-05-06T13:39:31.322Z,101059.94
2023-05-06T13:41:59.379Z,101065.38
2023-05-06T13:44:28.818Z,101060.59
2023-05-06T13:46:56.876Z,101046.28
2023-05-06T13:49:24.955Z,101043.66
2023-05-06T13:51:53.814Z,101049.59
2023-05-06T13:54:22.115Z,101050.22
2023-05-06T13:56:50.409Z,101054.41
2023-05-06T13:59:18.415Z,101061.16
2023-05-06T14:01:49.642Z,101065.81
2023-05-06T14:04:18.140Z,101070.47
2023-05-06T14:06:46.151Z,101071.84
2023-05-06T14:09:14.094Z,101069.06
2023-05-06T14:11:42.423Z,101065.94
2023-05-06T14:14:10.512Z,101067.75
2023-05-06T14:16:38.554Z,101076.84
2023-05-06T14:19:08.104Z,101080.28
2023-05-06T14:21:36.319Z,101077.97
2023-05-06T14:24:07.346Z,101081.66
2023-05-06T14:26:35.867Z,101085.41
2023-05-06T14:29:03.839Z,101081.22
2023-05-06T14:31:31.896Z,101090.66
2023-05-06T14:33:59.869Z,101080.13
2023-05-06T14:36:29.156Z,101077.63
2023-05-06T14:38:57.039Z,101084.16
2023-05-06T14:41:24.895Z,101082.78
2023-05-06T14:43:52.933Z,101087.00
2023-05-06T14:46:21.264Z,101086.84
2023-05-06T14:48:49.176Z,101096.00
2023-05-06T14:51:17.101Z,101104.19
2023-05-06T14:53:46.743Z,101109.13
2023-05-06T14:56:14.766Z,101113.63
2023-05-06T14:58:42.875Z,101110.97
2023-05-06T15:01:11.133Z,101112.34
2023-05-06T15:03:39.183Z,101118.66
2023-05-06T15:06:07.529Z,101122.03
2023-05-06T15:08:36.371Z,101128.41
2023-05-06T15:11:06.183Z,101138.22
2023-05-06T15:13:34.292Z,101138.53
2023-05-06T15:16:02.376Z,101133.38
2023-05-06T15:18:30.408Z,101132.31
2023-05-06T15:21:01.534Z,101135.91
2023-05-06T15:23:29.647Z,101132.25
2023-05-06T15:25:58.142Z,101146.84
2023-05-06T15:28:27.571Z,101143.88
2023-05-06T15:30:55.769Z,101143.69
2023-05-06T15:33:23.864Z,101149.84
2023-05-06T15:35:51.819Z,101149.81
2023-05-06T15:38:19.659Z,101151.09
2023-05-06T15:40:50.526Z,101149.44
2023-05-06T15:43:23.823Z,101153.00
2023-05-06T15:45:53.718Z,101162.59
2023-05-06T15:48:21.801Z,101164.94
2023-05-06T15:50:49.990Z,101168.22
2023-05-06T15:53:19.799Z,101165.44
2023-05-06T15:55:56.703Z,101168.06
2023-05-06T15:58:26.186Z,101162.19
2023-05-06T16:00:55.790Z,101169.63
2023-05-06T16:03:23.810Z,101174.88
2023-05-06T16:05:53.960Z,101174.69
2023-05-06T16:08:21.928Z,101167.25
2023-05-06T16:10:49.872Z,101179.47
2023-05-06T16:13:18.042Z,101175.91
2023-05-06T16:15:46.258Z,101178.09
2023-05-06T16:18:15.891Z,101169.81
2023-05-06T16:20:43.985Z,101175.19
2023-05-06T16:23:13.588Z,101186.84
2023-05-06T16:25:41.608Z,101183.38
2023-05-06T16:28:10.029Z,101181.97
2023-05-06T16:30:38.054Z,101183.16
2023-05-06T16:33:06.395Z,101186.19
2023-05-06T16:35:36.305Z,101198.22
2023-05-06T16:38:04.340Z,101207.75
2023-05-06T16:40:32.717Z,101202.78
2023-05-06T16:43:01.221Z,101208.28
2023-05-06T16:45:29.250Z,101198.25
2023-05-06T16:47:57.333Z,101185.22
2023-05-06T16:50:25.641Z,101203.19
2023-05-06T16:52:55.377Z,101200.72
2023-05-06T16:55:23.596Z,101206.00
2023-05-06T16:57:51.531Z,101209.56
2023-05-06T17:00:21.052Z,101202.13
2023-05-06T17:02:48.957Z,101201.16
2023-05-06T17:05:17.355Z,101195.78
2023-05-06T17:07:45.838Z,101206.63
2023-05-06T17:10:15.072Z,101199.88
2023-05-06T17:12:43.297Z,101197.38
2023-05-06T17:15:11.960Z,101197.22
2023-05-06T17:17:40.784Z,101194.63
2023-05-06T17:20:10.274Z,101198.13
2023-05-06T17:22:38.346Z,101190.59
2023-05-06T17:25:06.935Z,101194.25
2023-05-06T17:27:36.248Z,101200.22
2023-05-06T17:30:04.693Z,101207.66
2023-05-06T17:32:32.698Z,101209.38
2023-05-06T17:35:01.300Z,101209.38
2023-05-06T17:37:29.565Z,101217.66
2023-05-06T17:39:57.608Z,101212.16
2023-05-06T17:42:27.465Z,101201.09
2023-05-06T17:44:56.945Z,101200.34
2023-05-06T17:47:24.931Z,101206.22
2023-05-06T17:49:53.690Z,101211.84
2023-05-06T17:52:21.938Z,101213.16
2023-05-06T17:55:05.662Z,101209.53
2023-05-06T17:57:38.037Z,101208.25
2023-05-06T18:00:09.757Z,101210.44
2023-05-06T18:02:37.895Z,101210.22
2023-05-06T18:05:07.078Z,101224.66
2023-05-06T18:07:36.083Z,101216.34
2023-05-06T18:10:04.059Z,101216.31
2023-05-06T18:12:31.922Z,101217.91
2023-05-06T18:15:00.724Z,101231.44
2023-05-06T18:17:30.205Z,101225.16
2023-05-06T18:19:58.356Z,101229.31
2023-05-06T18:22:26.264Z,101235.09
2023-05-06T18:24:55.457Z,101231.75
2023-05-06T18:27:23.575Z,101231.09
2023-05-06T18:29:51.568Z,101238.50
2023-05-06T18:32:19.651Z,101235.16
2023-05-06T18:34:49.273Z,101245.34
2023-05-06T18:37:17.329Z,101254.47
2023-05-06T18:39:45.516Z,101255.53
2023-05-06T18:42:13.847Z,101253.81
2023-05-06T18:44:42.894Z,101261.88
2023-05-06T18:47:11.235Z,101266.69
2023-05-06T18:49:39.294Z,101268.91
2023-05-06T18:52:08.728Z,101271.69
2023-05-06T18:54:36.764Z,101276.56
2023-05-06T18:57:04.884Z,101281.25
2023-05-06T18:59:33.657Z,101291.41
2023-05-06T19:02:03.866Z,101288.25
2023-05-06T19:04:32.799Z,101289.25
2023-05-06T19:07:01.178Z,101286.44
2023-05-06T19:09:32.922Z,101284.81
2023-05-06T19:12:00.937Z,101291.34
2023-05-06T19:14:29.012Z,101296.88
2023-05-06T19:16:57.078Z,101288.28
2023-05-06T19:19:25.018Z,101295.28
2023-05-06T19:21:53.175Z,101304.00
2023-05-06T19:24:21.412Z,101300.28
2023-05-06T19:26:51.055Z,101299.28
2023-05-06T19:29:22.666Z,101301.97
2023-05-06T19:31:50.799Z,101307.75
2023-05-06T19:34:18.651Z,101305.34
2023-05-06T19:36:46.526Z,101305.25
2023-05-06T19:39:14.415Z,101310.72
2023-05-06T19:41:42.425Z,101308.41
2023-05-06T19:44:11.712Z,101322.81
2023-05-06T19:46:39.679Z,101310.72
2023-05-06T19:51:42.992Z,101324.69
2023-05-06T19:54:11.119Z,101336.50
2023-05-06T19:56:39.190Z,101343.78
2023-05-06T19:59:07.113Z,101343.03
2023-05-06T20:01:36.409Z,101353.00
2023-05-06T20:04:04.489Z,101351.47
2023-05-06T20:06:33.164Z,101359.88
2023-05-06T20:09:01.129Z,101358.31
2023-05-06T20:11:29.148Z,101361.09
2023-05-06T20:13:57.035Z,101373.09
2023-05-06T20:16:24.984Z,101377.59
2023-05-06T20:18:55.528Z,101377.47
2023-05-06T20:21:23.436Z,101378.19
2023-05-06T20:23:51.653Z,101375.41
2023-05-06T20:26:21.006Z,101384.13
2023-05-06T20:28:49.742Z,101389.69
2023-05-06T20:31:17.663Z,101384.31
2023-05-06T20:33:46.053Z,101397.81
2023-05-06T20:36:15.988Z,101390.81
2023-05-06T20:38:43.882Z,101397.31
2023-05-06T20:41:11.762Z,101391.06
2023-05-06T20:43:40.304Z,101406.91
2023-05-06T20:46:08.203Z,101397.03
2023-05-06T20:48:36.189Z,101405.97
2023-05-06T20:51:04.204Z,101402.53
2023-05-06T20:53:33.915Z,101412.47
2023-05-06T20:56:01.795Z,101409.03
2023-05-06T20:58:29.669Z,101418.78
2023-05-06T21:00:57.695Z,101418.78
2023-05-06T21:03:26.561Z,101419.00
2023-05-06T21:05:54.492Z,101422.63
2023-05-06T21:08:22.427Z,101428.84
2023-05-06T21:10:51.779Z,101425.31
2023-05-06T21:13:19.787Z,101422.88
2023-05-06T21:15:47.846Z,101428.34
2023-05-06T21:18:16.596Z,101427.47
2023-05-06T21:20:44.700Z,101426.44
2023-05-06T21:23:12.590Z,101427.38
2023-05-06T21:25:40.456Z,101425.47
2023-05-06T21:28:09.756Z,101434.03
2023-05-06T21:30:37.848Z,101431.94
2023-05-06T21:33:11.271Z,101437.06
2023-05-06T21:35:39.356Z,101442.25
2023-05-06T21:38:07.993Z,101444.72
2023-05-06T21:40:35.879Z,101443.13
2023-05-06T21:43:03.981Z,101438.09
2023-05-06T21:45:33.219Z,101452.28
2023-05-06T21:48:01.218Z,101451.34
2023-05-06T21:50:29.763Z,101445.88
2023-05-06T21:52:58.002Z,101449.25
2023-05-06T21:55:27.742Z,101455.56
2023-05-06T21:57:55.619Z,101453.75
2023-05-06T22:00:23.490Z,101452.03
2023-05-06T22:02:53.580Z,101449.25
2023-05-06T22:05:21.611Z,101445.34
2023-05-06T22:07:49.552Z,101456.59
2023-05-06T22:10:17.416Z,101457.34
2023-05-06T22:12:45.284Z,101463.50
2023-05-06T22:15:14.695Z,101461.78
2023-05-06T22:17:42.576Z,101465.69
2023-05-06T22:20:12.615Z,101460.84
2023-05-06T22:22:40.725Z,101453.94
2023-05-06T22:25:09.448Z,101454.03
2023-05-06T22:27:37.595Z,101447.69
2023-05-06T22:30:06.010Z,101446.06
2023-05-06T22:32:33.988Z,101446.91
2023-05-06T22:35:01.897Z,101451.25
2023-05-06T22:37:32.016Z,101447.69
2023-05-06T22:39:59.866Z,101456.72
2023-05-06T22:42:27.810Z,101462.09
2023-05-06T22:44:55.657Z,101458.72
2023-05-06T22:47:23.526Z,101462.25
2023-05-06T22:49:51.474Z,101474.84
2023-05-06T22:52:20.261Z,101467.13
2023-05-06T22:54:49.512Z,101477.34
2023-05-06T22:57:19.182Z,101476.22
2023-05-06T22:59:47.288Z,101467.88
2023-05-06T23:02:15.137Z,101471.94
2023-05-06T23:04:43.064Z,101474.13
2023-05-06T23:07:10.991Z,101473.59
2023-05-06T23:09:38.910Z,101473.94
2023-05-06T23:12:08.343Z,101470.53
2023-05-06T23:14:36.184Z,101472.63
2023-05-06T23:17:04.075Z,101462.16
2023-05-06T23:19:32.402Z,101465.97
2023-05-06T23:22:00.461Z,101460.84
2023-05-06T23:24:28.315Z,101465.41
2023-05-06T23:26:56.213Z,101467.16
2023-05-06T23:29:25.478Z,101476.06
2023-05-06T23:31:53.330Z,101474.25
2023-05-06T23:34:21.214Z,101472.25
2023-05-06T23:36:49.057Z,101468.56
2023-05-06T23:39:17.584Z,101464.06
2023-05-06T23:41:45.521Z,101457.63
2023-05-06T23:44:13.364Z,101459.38
2023-05-06T23:46:42.646Z,101465.44
2023-05-06T23:49:10.689Z,101470.47
2023-05-06T23:51:38.576Z,101487.97
2023-05-06T23:54:06.515Z,101490.31
2023-05-06T23:56:34.799Z,101488.25
2023-05-06T23:59:02.688Z,101490.72
